Time;durP1;ratioP1;P1;durP2;ratioP2;P2;SDS_P1;SDS_P2;PMS_P1;PMS_P2;Temp;Humidity;BMP_temperature;BMP_pressure;BME280_temperature;BME280_humidity;BME280_pressure;Samples;Min_cycle;Max_cycle;Signal;HPM_P1;HPM_P2
2022/12/15 00:39:03;;;;;;;33.23;30.63;;;4.40;28.40;;;;;;5110696;28;20446;-49
2022/12/15 00:41:28;;;;;;;34.77;32.00;;;4.40;28.40;;;;;;5109134;28;20439;-48
2022/12/15 00:43:54;;;;;;;34.80;31.80;;;4.40;29.00;;;;;;5109437;28;20620;-44
2022/12/15 00:46:53;;;;;;;31.70;29.00;;;4.40;28.50;;;;;;5109364;28;20201;-47
2022/12/15 01:22:02;;;;;;;33.37;30.70;;;4.40;28.40;;;;;;5110395;28;20822;-47
2022/12/15 01:24:28;;;;;;;31.90;29.37;;;4.40;28.40;;;;;;5108842;28;20499;-51
2022/12/15 01:26:53;;;;;;;32.13;29.57;;;4.30;28.40;;;;;;5108188;28;20539;-45
2022/12/15 01:29:19;;;;;;;33.23;30.77;;;4.30;28.40;;;;;;5109708;28;20180;-46
2022/12/15 01:31:44;;;;;;;31.97;29.37;;;4.30;28.40;;;;;;5108760;28;20288;-43
2022/12/15 01:34:10;;;;;;;34.47;31.87;;;4.20;28.30;;;;;;5108707;28;20174;-49
2022/12/15 01:36:36;;;;;;;34.90;32.10;;;4.30;28.60;;;;;;5108687;28;20198;-46
2022/12/15 01:39:01;;;;;;;33.57;30.87;;;4.20;28.80;;;;;;5109178;28;20223;-46
2022/12/15 01:41:28;;;;;;;32.90;30.20;;;4.30;28.70;;;;;;5108174;28;20201;-44
2022/12/15 01:43:54;;;;;;;34.80;32.10;;;4.30;28.40;;;;;;5109047;28;20166;-47
2022/12/15 01:46:22;;;;;;;33.67;30.83;;;4.00;29.90;;;;;;5108006;28;20412;-44
2022/12/15 01:48:58;;;;;;;34.63;31.87;;;4.00;30.50;;;;;;5108373;28;20519;-44
2022/12/15 01:51:40;;;;;;;35.30;32.40;;;4.10;29.20;;;;;;5108256;28;20518;-47
2022/12/15 01:54:28;;;;;;;36.53;33.63;;;4.30;29.10;;;;;;5109099;28;20411;-47
2022/12/15 01:56:58;;;;;;;33.83;31.23;;;4.30;29.00;;;;;;5109339;28;20487;-45
2022/12/15 01:59:31;;;;;;;36.33;33.50;;;4.30;29.00;;;;;;5107837;28;20408;-47
2022/12/15 02:01:57;;;;;;;33.93;31.30;;;4.20;29.10;;;;;;5108591;28;20419;-47
2022/12/15 02:04:23;;;;;;;34.80;32.23;;;4.30;29.40;;;;;;5108262;28;20412;-47
2022/12/15 02:06:49;;;;;;;35.37;32.50;;;4.30;29.30;;;;;;5107961;28;20268;-47
2022/12/15 02:09:16;;;;;;;36.23;33.33;;;4.30;29.10;;;;;;5107982;28;20843;-49
2022/12/15 02:12:00;;;;;;;33.67;31.07;;;4.40;28.50;;;;;;5107801;28;20178;-45
2022/12/15 02:14:57;;;;;;;33.97;31.47;;;4.40;28.40;;;;;;5107568;28;20419;-45
2022/12/15 02:17:23;;;;;;;34.27;31.53;;;4.40;28.70;;;;;;5108114;28;20460;-48
2022/12/15 02:20:11;;;;;;;34.47;31.87;;;4.30;28.50;;;;;;5107879;28;20498;-46
2022/12/15 02:22:45;;;;;;;36.80;33.70;;;4.40;28.40;;;;;;5107199;28;20181;-48
2022/12/15 02:25:42;;;;;;;31.87;29.37;;;4.30;28.40;;;;;;5107520;28;20415;-43
2022/12/15 02:28:37;;;;;;;35.17;32.27;;;4.30;28.40;;;;;;5108134;28;20904;-49
2022/12/15 02:33:56;;;;;;;36.00;33.17;;;4.30;28.70;;;;;;5108700;28;20558;-47
2022/12/15 02:36:36;;;;;;;35.53;32.50;;;4.30;28.90;;;;;;5107363;28;20467;-49
2022/12/15 02:39:04;;;;;;;35.40;32.57;;;4.30;28.80;;;;;;5106975;28;20759;-45
2022/12/15 02:41:41;;;;;;;32.83;30.23;;;4.30;28.90;;;;;;5107599;28;20404;-46
2022/12/15 02:44:10;;;;;;;36.27;33.30;;;4.20;29.10;;;;;;5107504;28;20447;-47
2022/12/15 02:47:07;;;;;;;35.90;33.10;;;4.30;28.90;;;;;;5107635;28;20415;-50
2022/12/15 02:49:54;;;;;;;35.90;32.90;;;4.30;28.90;;;;;;5108671;28;20924;-48
2022/12/15 02:52:41;;;;;;;35.57;32.87;;;4.30;28.90;;;;;;5107310;28;20777;-48
2022/12/15 02:55:23;;;;;;;36.83;33.80;;;4.30;29.00;;;;;;5106799;28;20787;-51
2022/12/15 02:58:04;;;;;;;36.00;33.30;;;4.20;28.60;;;;;;5108695;28;20420;-44
2022/12/15 03:00:35;;;;;;;36.37;33.50;;;4.20;28.60;;;;;;5111432;28;20782;-48
2022/12/15 03:03:01;;;;;;;36.27;33.40;;;4.20;28.70;;;;;;5111767;28;20428;-47
2022/12/15 03:05:30;;;;;;;36.90;33.80;;;4.10;28.80;;;;;;5111563;28;20453;-45
2022/12/15 03:07:55;;;;;;;37.80;34.67;;;4.10;29.10;;;;;;5111060;28;20212;-46
2022/12/15 03:10:23;;;;;;;36.67;33.70;;;4.10;29.20;;;;;;5111675;28;20949;-49
2022/12/15 03:12:51;;;;;;;36.40;33.40;;;4.00;29.80;;;;;;5111735;28;20174;-47
2022/12/15 03:15:18;;;;;;;37.57;34.37;;;4.00;29.60;;;;;;5110541;28;20427;-46
2022/12/15 03:17:43;;;;;;;34.30;31.60;;;4.00;29.60;;;;;;5112656;28;20879;-46
2022/12/15 03:20:10;;;;;;;35.90;33.07;;;3.90;29.70;;;;;;5110938;28;20443;-51
2022/12/15 03:22:36;;;;;;;36.13;33.23;;;4.00;29.70;;;;;;5105101;28;20458;-49
2022/12/15 03:25:03;;;;;;;37.77;34.57;;;4.10;29.50;;;;;;5107383;28;20771;-48
2022/12/15 03:27:29;;;;;;;38.47;35.33;;;4.20;29.30;;;;;;5104592;28;20416;-48
2022/12/15 03:29:55;;;;;;;38.90;35.60;;;4.30;29.00;;;;;;5108954;28;20415;-50
2022/12/15 03:32:20;;;;;;;38.93;35.87;;;4.40;28.90;;;;;;5109487;28;20412;-48
2022/12/15 03:34:46;;;;;;;39.43;36.23;;;4.30;28.40;;;;;;5109749;28;20555;-49
2022/12/15 03:37:12;;;;;;;40.50;37.20;;;4.30;28.90;;;;;;5110558;28;20248;-48
2022/12/15 03:39:37;;;;;;;37.70;34.40;;;4.30;28.40;;;;;;5109075;28;20178;-44
2022/12/15 03:42:03;;;;;;;39.97;36.60;;;4.40;28.50;;;;;;5110409;28;20170;-45
2022/12/15 03:44:29;;;;;;;37.53;34.50;;;4.40;28.40;;;;;;5110884;28;20544;-46
2022/12/15 03:46:54;;;;;;;40.17;36.67;;;4.40;28.40;;;;;;5111416;28;20192;-47
2022/12/15 03:49:20;;;;;;;40.00;36.63;;;4.50;28.50;;;;;;5110787;28;20217;-46
2022/12/15 03:51:46;;;;;;;40.20;36.83;;;4.40;28.50;;;;;;5111138;28;20178;-45
2022/12/15 03:54:13;;;;;;;39.60;36.27;;;4.40;28.40;;;;;;5111306;28;20181;-46
2022/12/15 03:56:38;;;;;;;39.90;36.57;;;4.00;29.40;;;;;;5110883;28;20228;-44
2022/12/15 03:59:04;;;;;;;40.77;37.30;;;3.80;30.20;;;;;;5110960;28;20415;-51
2022/12/15 04:01:32;;;;;;;40.17;36.90;;;3.80;30.60;;;;;;5111299;28;20178;-47
2022/12/15 04:03:58;;;;;;;41.90;38.40;;;3.60;30.40;;;;;;5110681;28;20185;-48
2022/12/15 04:06:24;;;;;;;42.80;39.00;;;3.40;30.90;;;;;;5111142;28;20423;-46
2022/12/15 04:08:50;;;;;;;39.37;35.97;;;3.20;32.00;;;;;;5110989;28;20788;-48
2022/12/15 04:11:16;;;;;;;39.33;36.10;;;3.10;32.70;;;;;;5110415;28;20852;-46
2022/12/15 04:13:42;;;;;;;43.73;39.63;;;2.90;33.60;;;;;;5111500;28;20254;-47
2022/12/15 04:16:08;;;;;;;42.80;38.90;;;2.90;33.90;;;;;;5110791;28;20963;-44
2022/12/15 04:18:34;;;;;;;41.23;37.73;;;3.00;34.40;;;;;;5111466;28;20178;-45
2022/12/15 04:20:59;;;;;;;41.77;38.10;;;3.20;33.50;;;;;;5110749;28;20424;-48
2022/12/15 04:23:25;;;;;;;40.53;37.13;;;3.50;32.50;;;;;;5111343;28;20280;-49
2022/12/15 05:32:02;;;;;;;41.00;37.23;;;4.70;28.30;;;;;;5120204;27;20479;-50
2022/12/15 05:34:31;;;;;;;40.60;37.07;;;4.70;28.10;;;;;;5104822;27;20926;-47
2022/12/15 05:36:58;;;;;;;41.20;37.70;;;4.70;28.10;;;;;;5109018;28;20297;-49
2022/12/15 05:39:25;;;;;;;40.73;37.10;;;4.70;27.80;;;;;;5109342;28;20474;-48
2022/12/15 05:41:52;;;;;;;39.40;36.10;;;4.70;28.10;;;;;;5109315;28;20979;-49
2022/12/15 05:44:18;;;;;;;39.07;35.67;;;4.70;28.10;;;;;;5108855;28;20454;-50
2022/12/15 05:46:45;;;;;;;40.03;36.67;;;4.60;28.60;;;;;;5108931;28;20430;-49
2022/12/15 05:49:13;;;;;;;40.07;36.67;;;4.60;28.40;;;;;;5105813;28;20424;-51
2022/12/15 05:51:40;;;;;;;39.87;36.37;;;4.70;28.10;;;;;;5101579;28;20920;-47
2022/12/15 05:54:11;;;;;;;38.60;35.07;;;4.70;28.10;;;;;;5096216;28;20512;-51
2022/12/15 05:56:36;;;;;;;38.50;35.17;;;4.70;28.60;;;;;;5102896;28;20458;-55
2022/12/15 05:59:03;;;;;;;39.17;36.10;;;4.60;28.20;;;;;;5103408;28;20884;-55
2022/12/15 06:01:30;;;;;;;40.60;37.10;;;4.60;28.60;;;;;;5105626;28;20182;-55
2022/12/15 06:03:57;;;;;;;39.00;35.80;;;4.60;28.60;;;;;;5103838;27;20408;-59
2022/12/15 06:06:23;;;;;;;40.00;36.70;;;4.70;28.70;;;;;;5103612;28;20424;-48
2022/12/15 06:08:49;;;;;;;42.47;38.63;;;4.40;28.40;;;;;;5106224;28;20435;-49
2022/12/15 06:11:17;;;;;;;40.77;36.83;;;4.10;29.70;;;;;;5106000;28;20424;-54
2022/12/15 06:13:43;;;;;;;41.00;37.50;;;4.20;29.80;;;;;;5093514;28;20827;-50
2022/12/15 06:16:18;;;;;;;39.87;36.30;;;4.40;29.40;;;;;;5100019;28;20456;-50
2022/12/15 06:18:46;;;;;;;39.60;36.00;;;4.40;29.00;;;;;;5110222;27;20907;-46
2022/12/15 06:21:18;;;;;;;41.50;37.93;;;4.50;28.80;;;;;;5111458;27;20417;-47
2022/12/15 06:23:44;;;;;;;38.23;35.20;;;4.60;28.60;;;;;;5089432;28;20986;-50
2022/12/15 06:26:18;;;;;;;37.73;34.60;;;4.60;28.60;;;;;;5095207;28;20448;-46
2022/12/15 06:28:43;;;;;;;39.37;36.07;;;4.60;28.60;;;;;;5089879;28;20901;-45
2022/12/15 06:31:10;;;;;;;39.20;36.00;;;4.60;28.60;;;;;;5088659;28;20531;-48
2022/12/15 06:33:37;;;;;;;39.50;36.20;;;4.60;28.60;;;;;;5116742;27;20178;-47
2022/12/15 06:36:05;;;;;;;41.90;38.10;;;4.50;29.00;;;;;;5123511;27;20807;-47
2022/12/15 06:38:31;;;;;;;39.70;36.37;;;4.50;28.50;;;;;;5109543;28;20865;-46
2022/12/15 06:40:59;;;;;;;38.67;35.47;;;4.50;28.50;;;;;;5108324;28;20485;-48
2022/12/15 06:43:25;;;;;;;38.30;35.20;;;4.50;28.50;;;;;;5099557;28;20428;-49
2022/12/15 06:45:51;;;;;;;40.37;36.40;;;4.30;29.10;;;;;;5103299;28;20427;-51
2022/12/15 06:48:18;;;;;;;39.67;36.33;;;4.10;29.90;;;;;;5130366;28;20423;-51
2022/12/15 06:50:46;;;;;;;38.30;35.10;;;4.00;30.40;;;;;;5114429;28;20174;-48
2022/12/15 06:53:14;;;;;;;38.20;35.10;;;4.10;30.00;;;;;;5109392;28;20447;-46
2022/12/15 06:55:40;;;;;;;38.43;35.30;;;4.20;29.80;;;;;;5106365;28;20463;-45
2022/12/15 06:58:06;;;;;;;37.43;34.37;;;4.40;29.30;;;;;;5109023;28;20471;-45
2022/12/15 07:00:33;;;;;;;38.07;34.67;;;4.50;29.10;;;;;;5108879;28;20423;-57
2022/12/15 07:02:59;;;;;;;39.37;35.90;;;4.50;28.80;;;;;;5115235;28;20441;-53
2022/12/15 07:05:26;;;;;;;36.60;33.60;;;4.60;28.60;;;;;;5107242;28;20447;-55
2022/12/15 07:07:51;;;;;;;38.03;34.63;;;4.60;28.60;;;;;;5107523;28;20182;-57
2022/12/15 07:10:17;;;;;;;39.93;36.53;;;4.70;28.60;;;;;;5107307;28;20464;-52
2022/12/15 07:12:43;;;;;;;40.07;36.67;;;4.80;28.70;;;;;;5102751;28;20268;-56
2022/12/15 07:15:10;;;;;;;38.10;35.10;;;4.70;28.70;;;;;;5116759;28;20848;-53
2022/12/15 07:17:36;;;;;;;40.20;36.87;;;4.70;28.70;;;;;;5105524;28;20680;-55
2022/12/15 07:20:04;;;;;;;40.33;36.90;;;4.70;28.70;;;;;;5108411;28;20510;-56
2022/12/15 07:22:29;;;;;;;38.70;35.50;;;4.70;28.60;;;;;;5103242;28;20424;-56
2022/12/15 07:24:55;;;;;;;39.87;36.60;;;4.70;28.40;;;;;;5109260;28;20515;-54
2022/12/15 07:27:21;;;;;;;39.43;36.00;;;4.80;28.10;;;;;;5099582;28;20427;-54
2022/12/15 07:29:47;;;;;;;61.43;49.13;;;4.60;28.60;;;;;;5091290;28;20178;-56
2022/12/15 07:32:12;;;;;;;39.17;35.80;;;4.20;29.80;;;;;;5103282;28;20183;-54
2022/12/15 07:34:38;;;;;;;38.70;35.23;;;4.30;30.00;;;;;;5105167;28;20305;-55
2022/12/15 07:37:04;;;;;;;38.70;35.43;;;4.10;29.70;;;;;;5106671;28;20210;-51
2022/12/15 07:39:29;;;;;;;40.67;36.83;;;4.30;30.20;;;;;;5108299;28;20170;-47
2022/12/15 07:41:55;;;;;;;39.57;36.13;;;4.40;29.50;;;;;;5108188;28;20691;-50
2022/12/15 07:44:21;;;;;;;38.90;35.70;;;4.50;29.30;;;;;;5108136;28;20235;-49
2022/12/15 07:46:48;;;;;;;38.17;34.90;;;4.60;29.20;;;;;;5111467;28;20188;-46
2022/12/15 07:49:15;;;;;;;37.70;34.47;;;4.70;28.60;;;;;;5112302;28;20464;-45
2022/12/15 07:51:40;;;;;;;38.90;35.53;;;4.70;28.60;;;;;;5112312;28;20419;-45
2022/12/15 07:54:08;;;;;;;39.27;35.97;;;4.70;28.60;;;;;;5113549;28;20497;-51
2022/12/15 07:56:34;;;;;;;39.90;36.30;;;4.70;28.60;;;;;;5113536;28;20479;-47
2022/12/15 07:58:59;;;;;;;39.77;36.50;;;4.80;28.70;;;;;;5113401;28;20536;-45
2022/12/15 08:01:25;;;;;;;37.60;34.40;;;4.70;28.70;;;;;;5113241;28;20626;-45
2022/12/15 08:03:51;;;;;;;38.10;34.93;;;4.80;28.70;;;;;;5113066;28;20170;-46
2022/12/15 08:06:17;;;;;;;38.80;35.50;;;4.90;28.50;;;;;;5112439;28;20412;-49
2022/12/15 08:08:43;;;;;;;41.47;37.77;;;4.90;28.10;;;;;;5112430;28;20174;-47
2022/12/15 08:11:12;;;;;;;38.83;35.70;;;4.80;28.30;;;;;;5112702;28;20209;-46
2022/12/15 08:13:39;;;;;;;37.67;34.37;;;4.80;28.70;;;;;;5112757;28;20427;-45
2022/12/15 08:16:05;;;;;;;40.53;36.67;;;4.80;28.30;;;;;;5109558;28;20532;-44
2022/12/15 08:18:31;;;;;;;41.03;37.60;;;4.90;28.30;;;;;;5112821;28;20448;-47
2022/12/15 08:21:08;;;;;;;40.13;36.53;;;4.90;28.30;;;;;;5113155;28;20423;-49
2022/12/15 08:23:35;;;;;;;38.23;34.90;;;4.90;28.00;;;;;;5112926;28;20411;-52
2022/12/15 08:26:06;;;;;;;42.20;38.80;;;4.80;28.10;;;;;;5112872;28;20420;-45
2022/12/15 08:28:33;;;;;;;40.40;37.10;;;4.80;28.40;;;;;;5113084;28;20412;-52
2022/12/15 08:31:14;;;;;;;38.20;35.17;;;4.80;28.40;;;;;;5112812;28;20424;-53
2022/12/15 08:33:41;;;;;;;37.70;34.60;;;4.80;28.40;;;;;;5113018;28;20468;-48
2022/12/15 08:36:09;;;;;;;38.37;35.17;;;4.80;28.90;;;;;;5112802;28;20474;-51
2022/12/15 08:38:39;;;;;;;38.50;35.10;;;4.90;29.90;;;;;;5113053;28;20553;-52
2022/12/15 08:41:14;;;;;;;38.70;35.30;;;4.90;29.60;;;;;;5113956;28;20805;-48
2022/12/15 08:43:40;;;;;;;39.67;36.37;;;5.00;29.60;;;;;;5112529;28;20411;-46
2022/12/15 08:46:07;;;;;;;36.47;33.40;;;5.00;29.50;;;;;;5112180;28;20457;-50
2022/12/15 08:48:34;;;;;;;40.20;36.63;;;5.00;28.80;;;;;;5112547;28;20407;-47
2022/12/15 08:51:00;;;;;;;38.57;35.17;;;4.90;28.80;;;;;;5112510;28;20503;-44
2022/12/15 08:53:26;;;;;;;39.43;35.90;;;4.90;28.80;;;;;;5112129;28;20415;-45
2022/12/15 08:55:52;;;;;;;39.80;36.30;;;4.90;28.80;;;;;;5110834;28;20455;-44
2022/12/15 08:58:18;;;;;;;40.77;37.10;;;4.90;28.80;;;;;;5112882;28;20463;-49
2022/12/15 09:00:44;;;;;;;39.20;35.60;;;5.00;28.80;;;;;;5112243;28;20277;-45
2022/12/15 09:03:10;;;;;;;39.20;35.70;;;5.00;28.50;;;;;;5112393;28;20491;-46
2022/12/15 09:05:37;;;;;;;40.20;36.50;;;4.90;28.50;;;;;;5112122;28;20427;-47
2022/12/15 09:08:03;;;;;;;39.47;36.07;;;4.90;28.80;;;;;;5112353;28;20170;-50
2022/12/15 09:10:29;;;;;;;37.53;34.13;;;4.90;28.80;;;;;;5111668;28;20915;-45
2022/12/15 09:12:55;;;;;;;39.73;36.23;;;4.90;28.80;;;;;;5111868;28;20416;-51
2022/12/15 09:15:21;;;;;;;38.70;35.50;;;5.00;28.70;;;;;;5111800;28;20416;-50
2022/12/15 09:17:47;;;;;;;38.17;34.90;;;5.10;28.40;;;;;;5112128;28;20182;-48
2022/12/15 09:20:13;;;;;;;38.63;35.13;;;5.10;28.40;;;;;;5113322;28;20414;-48
2022/12/15 09:22:40;;;;;;;38.93;35.40;;;5.10;28.10;;;;;;5109151;28;20178;-59
2022/12/15 09:25:06;;;;;;;40.50;37.00;;;5.10;28.40;;;;;;5111486;28;20498;-59
2022/12/15 09:27:33;;;;;;;39.30;35.70;;;5.10;28.40;;;;;;5111624;28;20471;-60
2022/12/15 09:30:00;;;;;;;40.67;37.27;;;5.10;27.90;;;;;;5111152;28;20419;-56
2022/12/15 09:32:25;;;;;;;39.60;36.27;;;5.20;27.70;;;;;;5110910;28;20927;-56
2022/12/15 09:34:51;;;;;;;40.63;37.00;;;5.00;28.20;;;;;;5110573;28;20420;-56
2022/12/15 09:37:17;;;;;;;40.83;36.93;;;5.00;28.10;;;;;;5111272;28;20624;-56
2022/12/15 09:39:43;;;;;;;41.20;37.60;;;5.00;28.40;;;;;;5111008;28;20826;-56
2022/12/15 09:42:22;;;;;;;39.37;35.90;;;5.00;28.30;;;;;;5111039;28;20419;-46
2022/12/15 09:44:54;;;;;;;36.87;33.47;;;5.00;28.20;;;;;;5111628;28;20177;-44
2022/12/15 09:47:52;;;;;;;39.70;36.07;;;5.00;28.60;;;;;;5111606;28;20515;-49
2022/12/15 09:50:25;;;;;;;41.57;37.90;;;5.00;28.00;;;;;;5111473;28;20412;-46
2022/12/15 09:52:53;;;;;;;40.67;36.83;;;5.00;28.10;;;;;;5111020;28;20426;-48
2022/12/15 09:55:25;;;;;;;40.47;36.73;;;5.10;27.60;;;;;;5111394;28;20422;-45
2022/12/15 09:58:02;;;;;;;40.00;36.40;;;5.10;27.80;;;;;;5110588;28;20440;-49
2022/12/15 10:00:43;;;;;;;39.43;35.80;;;5.10;27.40;;;;;;5090531;28;20416;-46
2022/12/15 10:03:48;;;;;;;39.10;35.67;;;5.10;28.00;;;;;;5090067;28;20400;-49
2022/12/15 10:06:18;;;;;;;39.77;36.47;;;5.10;27.40;;;;;;5008308;28;20869;-55
2022/12/15 10:08:51;;;;;;;38.50;35.00;;;5.20;27.30;;;;;;4992241;28;20416;-55
2022/12/15 10:11:42;;;;;;;39.53;36.13;;;5.10;27.10;;;;;;5045041;28;20421;-56
2022/12/15 10:14:29;;;;;;;38.40;34.97;;;5.10;27.60;;;;;;5090430;28;20412;-53
2022/12/15 10:17:20;;;;;;;41.67;38.07;;;5.10;27.50;;;;;;5091496;28;20452;-50
2022/12/15 10:20:27;;;;;;;39.00;35.20;;;4.90;28.40;;;;;;5090472;28;20778;-51
2022/12/15 10:23:14;;;;;;;36.57;33.30;;;4.80;28.20;;;;;;5009346;28;20420;-52
2022/12/15 10:25:47;;;;;;;41.80;38.20;;;4.90;28.20;;;;;;5008798;28;20418;-52
2022/12/15 10:28:16;;;;;;;39.00;35.17;;;4.90;28.80;;;;;;5056141;28;20427;-52
2022/12/15 10:31:01;;;;;;;39.43;35.70;;;4.90;28.80;;;;;;5090553;28;20960;-53
2022/12/15 10:33:34;;;;;;;39.53;35.53;;;4.90;28.80;;;;;;5090620;28;20416;-52
2022/12/15 10:36:00;;;;;;;40.47;36.57;;;5.00;28.40;;;;;;5089740;28;20460;-53
2022/12/15 10:38:41;;;;;;;40.73;37.13;;;5.00;28.20;;;;;;5090605;28;20454;-51
2022/12/15 10:41:15;;;;;;;40.20;36.63;;;5.00;28.40;;;;;;5090512;28;20855;-52
2022/12/15 10:43:44;;;;;;;38.60;35.00;;;5.00;28.40;;;;;;5090644;28;20408;-54
2022/12/15 10:46:21;;;;;;;42.07;38.07;;;5.00;28.70;;;;;;5090343;28;20409;-50
2022/12/15 10:48:58;;;;;;;39.07;35.47;;;5.00;28.40;;;;;;5090406;28;20417;-56
2022/12/15 10:51:45;;;;;;;39.67;35.87;;;5.00;27.90;;;;;;5090627;28;20408;-50
2022/12/15 10:54:13;;;;;;;39.00;35.50;;;5.00;27.80;;;;;;5090652;28;20417;-50
2022/12/15 10:56:54;;;;;;;38.00;34.70;;;4.60;28.60;;;;;;5090117;28;20456;-55
2022/12/15 10:59:27;;;;;;;39.17;35.60;;;4.60;29.00;;;;;;5090454;28;20416;-52
2022/12/15 11:01:53;;;;;;;41.30;37.70;;;4.70;28.60;;;;;;5090276;28;20419;-54
2022/12/15 11:04:27;;;;;;;39.97;36.57;;;4.90;28.80;;;;;;5090263;28;20921;-56
2022/12/15 11:07:01;;;;;;;37.60;34.30;;;5.00;28.50;;;;;;5090246;28;20186;-49
2022/12/15 11:09:36;;;;;;;39.40;35.83;;;5.00;28.10;;;;;;5090650;28;20425;-50
2022/12/15 11:15:23;;;;;;;40.20;36.77;;;4.70;28.80;;;;;;5091571;28;21130;-53
2022/12/15 11:18:06;;;;;;;39.90;36.30;;;4.80;28.70;;;;;;5090160;28;20471;-52
2022/12/15 11:20:34;;;;;;;39.57;36.27;;;4.70;28.90;;;;;;5093599;28;20412;-53
2022/12/15 11:23:34;;;;;;;41.00;36.80;;;4.50;30.50;;;;;;5093659;28;20857;-50
2022/12/15 11:26:05;;;;;;;39.07;35.40;;;4.60;29.10;;;;;;5093909;28;20413;-53
2022/12/15 11:29:05;;;;;;;42.10;38.17;;;4.70;30.50;;;;;;5093893;28;20423;-54
2022/12/15 11:31:36;;;;;;;40.87;37.07;;;4.80;29.00;;;;;;5094162;28;20519;-54
2022/12/15 11:34:03;;;;;;;37.37;34.10;;;5.00;28.80;;;;;;5093848;28;20429;-52
2022/12/15 11:36:42;;;;;;;38.83;35.17;;;5.10;28.90;;;;;;5093846;28;20456;-50
2022/12/15 11:39:17;;;;;;;39.97;36.40;;;5.00;28.80;;;;;;5093767;28;21129;-48
2022/12/15 11:41:49;;;;;;;40.93;37.30;;;4.70;29.50;;;;;;5093717;28;20440;-44
2022/12/15 11:44:28;;;;;;;39.07;35.57;;;4.80;28.70;;;;;;5093370;28;20412;-48
2022/12/15 11:47:39;;;;;;;39.60;36.10;;;4.90;28.80;;;;;;5093538;28;20422;-47
2022/12/15 11:50:23;;;;;;;39.23;35.67;;;5.10;28.40;;;;;;5093611;28;20416;-45
2022/12/15 11:52:59;;;;;;;39.93;36.57;;;5.20;28.40;;;;;;5093421;28;20950;-44
2022/12/15 11:55:53;;;;;;;40.53;36.87;;;5.20;28.10;;;;;;5093281;28;20519;-45
2022/12/15 11:58:41;;;;;;;39.23;35.93;;;5.20;28.20;;;;;;5103088;28;20485;-47
2022/12/15 12:01:09;;;;;;;38.53;35.50;;;5.20;28.10;;;;;;5111797;28;20538;-49
2022/12/15 12:04:13;;;;;;;37.50;34.40;;;5.20;28.10;;;;;;5112097;28;20521;-45
2022/12/15 12:07:02;;;;;;;39.33;35.77;;;5.20;27.70;;;;;;5098832;28;20407;-49
2022/12/15 12:09:35;;;;;;;38.13;34.87;;;5.20;28.20;;;;;;5103860;28;20426;-45
2022/12/15 12:12:10;;;;;;;41.10;37.27;;;5.20;27.80;;;;;;5112812;28;20412;-50
2022/12/15 12:14:47;;;;;;;40.33;36.83;;;5.20;28.00;;;;;;5113656;28;20412;-47
2022/12/15 12:17:40;;;;;;;38.17;34.77;;;5.20;27.90;;;;;;5113267;28;20478;-51
2022/12/15 12:20:37;;;;;;;40.23;36.63;;;5.10;28.40;;;;;;5113327;28;20416;-59
2022/12/15 12:23:28;;;;;;;41.73;37.93;;;5.10;28.90;;;;;;5112794;28;21274;-47
2022/12/15 12:25:58;;;;;;;41.07;37.43;;;5.20;28.70;;;;;;5112859;28;20438;-46
2022/12/15 12:28:49;;;;;;;41.40;37.60;;;4.90;29.60;;;;;;5105102;28;20785;-48
2022/12/15 12:31:40;;;;;;;38.87;35.57;;;4.90;29.20;;;;;;5112330;28;20424;-46
2022/12/15 12:34:26;;;;;;;41.43;37.80;;;5.00;28.80;;;;;;5113089;28;20604;-44
2022/12/15 12:36:54;;;;;;;40.43;36.80;;;4.70;30.20;;;;;;5112051;28;20463;-48
2022/12/15 12:39:23;;;;;;;38.07;34.77;;;4.70;29.60;;;;;;5113368;28;20900;-52
2022/12/15 12:42:20;;;;;;;40.17;36.67;;;4.80;29.00;;;;;;5112787;28;20431;-51
2022/12/15 12:44:45;;;;;;;38.83;35.23;;;4.90;29.50;;;;;;5099569;28;20419;-49
2022/12/15 12:47:27;;;;;;;39.07;36.00;;;4.90;28.80;;;;;;5112680;28;20420;-44
2022/12/15 12:50:03;;;;;;;42.90;38.57;;;5.00;30.00;;;;;;5112828;28;20178;-47
2022/12/15 12:52:35;;;;;;;39.07;35.70;;;5.10;29.20;;;;;;5096918;28;20419;-48
2022/12/15 12:55:03;;;;;;;40.33;36.60;;;5.20;29.00;;;;;;5112696;28;20493;-48
2022/12/15 12:57:38;;;;;;;38.80;35.67;;;5.20;28.60;;;;;;5112697;28;20475;-46
2022/12/15 13:00:07;;;;;;;38.30;35.00;;;5.30;28.80;;;;;;5112604;28;20419;-45
2022/12/15 13:02:38;;;;;;;48.53;43.87;;;5.40;28.20;;;;;;5112399;28;20438;-45
2022/12/15 13:05:26;;;;;;;46.63;42.17;;;5.50;28.20;;;;;;5112624;28;20412;-46
2022/12/15 13:08:03;;;;;;;38.70;34.97;;;5.50;27.80;;;;;;5112501;28;20416;-44
2022/12/15 13:10:30;;;;;;;40.43;36.80;;;5.60;27.50;;;;;;5096869;28;20993;-48
2022/12/15 13:12:58;;;;;;;39.63;36.10;;;5.60;28.50;;;;;;5112466;28;20412;-48
2022/12/15 13:15:27;;;;;;;39.03;35.63;;;5.60;28.20;;;;;;5112394;28;20473;-49
2022/12/15 13:18:21;;;;;;;38.03;34.70;;;5.60;28.50;;;;;;5112245;28;20483;-46
2022/12/15 13:20:49;;;;;;;38.97;35.53;;;5.70;28.40;;;;;;5099242;28;20411;-45
2022/12/15 13:23:21;;;;;;;41.93;38.23;;;5.80;28.80;;;;;;5112055;28;20904;-50
2022/12/15 13:25:52;;;;;;;40.17;36.50;;;5.90;27.90;;;;;;5112060;28;20923;-46
2022/12/15 13:28:43;;;;;;;38.60;35.30;;;5.80;27.40;;;;;;5111718;28;20427;-47
2022/12/15 13:31:19;;;;;;;42.27;38.40;;;5.80;27.60;;;;;;5111899;28;20434;-50
2022/12/15 13:33:47;;;;;;;41.27;37.40;;;5.70;27.60;;;;;;5111810;28;20793;-47
2022/12/15 13:36:36;;;;;;;42.97;39.13;;;5.70;27.80;;;;;;5111888;28;20466;-48
2022/12/15 13:39:13;;;;;;;40.67;37.03;;;5.60;28.10;;;;;;5111873;28;20420;-44
2022/12/15 13:41:45;;;;;;;41.03;37.53;;;5.60;27.80;;;;;;5111794;28;20472;-50
2022/12/15 13:44:30;;;;;;;37.67;34.53;;;5.60;28.00;;;;;;5111145;28;20423;-44
2022/12/15 13:47:05;;;;;;;38.67;35.37;;;5.60;27.90;;;;;;5109710;28;20435;-51
2022/12/15 13:49:39;;;;;;;41.07;37.47;;;5.60;28.10;;;;;;5111814;28;20504;-47
2022/12/15 13:52:22;;;;;;;37.60;34.40;;;5.60;28.10;;;;;;5111683;28;20492;-53
2022/12/15 13:55:00;;;;;;;41.10;37.57;;;5.60;28.10;;;;;;5111535;28;20419;-49
2022/12/15 13:57:30;;;;;;;38.43;35.10;;;5.60;28.10;;;;;;5111235;28;20469;-46
2022/12/15 14:00:17;;;;;;;36.70;33.60;;;5.60;28.10;;;;;;5111011;28;20403;-43
2022/12/15 14:02:43;;;;;;;39.33;36.03;;;5.60;28.30;;;;;;5102278;28;20820;-45
2022/12/15 14:05:21;;;;;;;37.33;34.23;;;5.60;28.20;;;;;;5111366;28;20416;-45
2022/12/15 14:07:58;;;;;;;36.03;32.83;;;5.60;28.10;;;;;;5111285;28;20431;-52
2022/12/15 14:10:38;;;;;;;34.37;31.47;;;5.60;28.50;;;;;;5110827;28;20419;-51
2022/12/15 14:13:18;;;;;;;33.87;30.97;;;5.60;28.30;;;;;;5110489;28;20427;-45
2022/12/15 14:15:51;;;;;;;36.70;33.50;;;5.70;28.30;;;;;;5111248;28;20418;-48
2022/12/15 14:18:36;;;;;;;33.63;30.93;;;5.60;28.10;;;;;;5111672;28;20454;-50
2022/12/15 14:21:06;;;;;;;35.07;32.00;;;5.60;28.40;;;;;;5111566;28;20492;-47
2022/12/15 14:23:43;;;;;;;35.23;32.30;;;5.60;28.40;;;;;;5111356;28;20423;-50
2022/12/15 14:26:11;;;;;;;33.47;30.57;;;5.60;28.50;;;;;;5111142;28;20836;-48
2022/12/15 14:28:39;;;;;;;37.93;34.83;;;5.60;28.70;;;;;;5111100;28;20446;-51
2022/12/15 14:31:10;;;;;;;46.60;42.37;;;5.50;28.60;;;;;;5110696;28;20423;-48
2022/12/15 14:33:39;;;;;;;44.87;40.80;;;5.50;28.70;;;;;;5110973;28;20843;-47
2022/12/15 14:36:09;;;;;;;47.23;42.63;;;5.50;29.20;;;;;;5110592;28;20489;-51
2022/12/15 14:38:42;;;;;;;50.77;46.17;;;5.60;29.20;;;;;;5109835;28;20421;-44
2022/12/15 14:41:20;;;;;;;41.80;38.10;;;5.60;28.60;;;;;;5108300;28;20419;-49
2022/12/15 14:43:48;;;;;;;35.37;32.23;;;5.20;29.50;;;;;;5111118;28;20876;-46
2022/12/15 14:46:21;;;;;;;36.63;33.47;;;5.30;29.50;;;;;;5110417;28;20424;-51
2022/12/15 14:48:55;;;;;;;37.10;33.80;;;5.50;29.10;;;;;;5110891;28;20530;-45
2022/12/15 14:51:22;;;;;;;33.70;30.70;;;5.50;29.10;;;;;;5110487;28;20514;-47
2022/12/15 14:53:51;;;;;;;34.53;31.60;;;5.60;29.10;;;;;;5111601;28;20464;-45
2022/12/15 14:56:19;;;;;;;36.10;32.80;;;5.70;28.50;;;;;;5114792;28;20475;-49
2022/12/15 14:59:18;;;;;;;33.90;30.93;;;5.70;28.70;;;;;;5114646;28;20412;-51
2022/12/15 15:02:00;;;;;;;36.47;33.30;;;5.80;28.60;;;;;;5114945;28;20411;-49
2022/12/15 15:04:31;;;;;;;34.70;31.60;;;5.70;29.20;;;;;;5114781;28;20775;-51
2022/12/15 15:07:00;;;;;;;34.87;31.97;;;5.80;28.30;;;;;;5114408;28;20427;-52
2022/12/15 15:09:27;;;;;;;35.47;32.60;;;5.80;28.20;;;;;;5114939;28;20887;-51
2022/12/15 15:11:58;;;;;;;33.80;30.80;;;5.80;28.30;;;;;;5114392;28;20415;-51
2022/12/15 15:14:28;;;;;;;36.00;32.80;;;5.70;28.20;;;;;;5114684;28;20919;-49
2022/12/15 15:17:17;;;;;;;34.67;31.77;;;5.70;28.30;;;;;;5114243;28;20508;-47
2022/12/15 15:19:51;;;;;;;36.10;33.00;;;5.70;28.20;;;;;;5101464;28;20408;-54
2022/12/15 15:22:36;;;;;;;39.80;36.30;;;5.70;28.30;;;;;;5114686;28;20423;-49
2022/12/15 15:25:21;;;;;;;37.00;33.63;;;5.60;28.60;;;;;;5114145;28;20418;-53